Terminal Aerodrome Forecast
Issued by NWS

Home | Current Version | Previous Version | Graphics & Text | Print | Product List | Glossary On
Versions: 1 2 3 4 5 6 7 8 9 10 11 12 13 14 15 16 17 18 19 20 21 22 23 24 25 26 27 28 29 30 31 32
000
FTUS43 KLOT 300200 AAA
TAFMDW
TAF AMD
KMDW 300228Z 3002/3024 32012G18KT P6SM OVC045
     FM300400 33015G25KT P6SM -SN SCT035 OVC045
     FM300700 34013G20KT P6SM SCT025 BKN035
     FM301500 33009KT P6SM SCT025 SCT150
     FM302100 27006KT P6SM SCT025 BKN100=

USA.gov is the U.S. government's official web portal to all federal, state and local government web resources and services.